NFTF/TBU METAR and TAF weather

Enter ICAO airport designator
Station Type Date Time Source
NFTF METAR 2020/08/06 00:00 UTC NOAA

NFTF 060000Z 20006KT 9999 FEW018 24/17 Q1016


Station Type Date Time Source
NFTF Decoded METAR 2020/08/06 00:00 UTC NOAA

Fua'Amotu, Tonga (NFTF) 21-14S 175-09W 41M
Aug 05, 2020 - 08:00 PM EDT / 2020.08.06 0000 UTC
Wind: from the SSW (200 degrees) at 7 MPH (6 KT):0
Visibility: greater than 7 mile(s):0
Sky conditions: mostly clear
Temperature: 75 F (24 C)
Dew Point: 62 F (17 C)
Relative Humidity: 64%
Pressure (altimeter): 30.00 in. Hg (1016 hPa)
ob: NFTF 060000Z 20006KT 9999 FEW018 24/17 Q1016
cycle: 0

Station Type Date Time Source
NFTF TAF 2020/08/05 18:05 UTC NOAA

TAF NFTF 051701Z 0518/0618 16005KT 9999 FEW017

Example: see airport list